Time;durP1;ratioP1;P1;durP2;ratioP2;P2;SDS_P1;SDS_P2;PMS_P1;PMS_P2;Temp;Humidity;BMP_temperature;BMP_pressure;BME280_temperature;BME280_humidity;BME280_pressure;Samples;Min_cycle;Max_cycle;Signal;HPM_P1;HPM_P2
2024/01/25 00:01:12;;;;;;;52.83;8.00;;;7.10;99.90;;;;;;5073617;28;20303;-50
2024/01/25 00:03:38;;;;;;;54.43;8.40;;;7.10;99.90;;;;;;5074019;28;20614;-50
2024/01/25 00:06:05;;;;;;;50.73;7.10;;;7.00;99.90;;;;;;5074104;28;20186;-50
2024/01/25 00:08:31;;;;;;;46.60;7.10;;;7.00;99.90;;;;;;5073284;28;20229;-50
2024/01/25 00:10:56;;;;;;;55.67;8.37;;;7.00;99.90;;;;;;5073734;28;20463;-49
2024/01/25 00:13:22;;;;;;;49.47;8.80;;;6.90;99.90;;;;;;5073738;28;20174;-49
2024/01/25 00:15:47;;;;;;;40.80;7.57;;;6.90;99.90;;;;;;5073724;28;20650;-49
2024/01/25 00:18:13;;;;;;;37.57;6.70;;;6.90;99.90;;;;;;5073981;28;20197;-49
2024/01/25 00:20:39;;;;;;;48.13;7.03;;;6.90;99.90;;;;;;5073578;28;20209;-49
2024/01/25 00:23:04;;;;;;;57.53;7.70;;;6.90;99.90;;;;;;5073433;28;20209;-50
2024/01/25 00:25:30;;;;;;;52.40;7.97;;;6.90;99.90;;;;;;5073770;28;20182;-50
2024/01/25 00:27:55;;;;;;;43.70;6.93;;;6.90;99.90;;;;;;5073660;28;20678;-50
2024/01/25 00:30:21;;;;;;;36.53;6.50;;;6.90;99.90;;;;;;5073591;28;20260;-50
2024/01/25 00:32:47;;;;;;;46.70;7.50;;;6.90;99.90;;;;;;5073161;28;20182;-49
2024/01/25 00:35:14;;;;;;;51.67;8.07;;;6.90;99.90;;;;;;5073573;28;20194;-50
2024/01/25 00:37:40;;;;;;;41.27;6.87;;;6.90;99.90;;;;;;5073567;28;20463;-49
2024/01/25 00:40:07;;;;;;;37.03;5.63;;;6.90;99.90;;;;;;5073033;28;20432;-49
2024/01/25 00:42:40;;;;;;;55.10;7.67;;;6.80;99.90;;;;;;5073240;28;20991;-49
2024/01/25 00:45:06;;;;;;;35.63;6.20;;;6.90;99.90;;;;;;5073697;28;20404;-50
2024/01/25 00:47:32;;;;;;;40.83;7.00;;;6.90;99.90;;;;;;5073356;28;20781;-50
2024/01/25 00:49:58;;;;;;;46.27;7.70;;;6.80;99.90;;;;;;5072936;28;20475;-49
2024/01/25 00:52:24;;;;;;;46.97;7.63;;;6.80;99.90;;;;;;5073464;28;20260;-50
2024/01/25 00:54:50;;;;;;;56.77;9.53;;;6.90;99.90;;;;;;5073461;28;20196;-50
2024/01/25 00:57:15;;;;;;;39.50;6.90;;;6.80;99.90;;;;;;5073186;28;20174;-49
2024/01/25 00:59:41;;;;;;;43.37;8.10;;;6.90;99.90;;;;;;5073342;28;20182;-50
2024/01/25 01:02:11;;;;;;;52.10;8.50;;;6.90;99.90;;;;;;5073357;28;20184;-50
2024/01/25 01:04:37;;;;;;;59.30;7.73;;;7.00;99.90;;;;;;5073380;28;20182;-50
2024/01/25 01:07:03;;;;;;;44.47;7.03;;;6.90;99.90;;;;;;5072972;28;20471;-50
2024/01/25 01:09:29;;;;;;;51.73;7.37;;;6.90;99.90;;;;;;5073289;28;20474;-50
2024/01/25 01:11:55;;;;;;;52.50;7.30;;;6.90;99.90;;;;;;5073005;28;20896;-50
2024/01/25 01:14:20;;;;;;;44.53;5.97;;;7.00;99.90;;;;;;5072912;28;20174;-49
2024/01/25 01:16:46;;;;;;;55.27;5.93;;;6.90;99.90;;;;;;5073269;28;20175;-50
2024/01/25 01:19:11;;;;;;;44.23;6.90;;;6.90;99.90;;;;;;5073353;28;20656;-50
2024/01/25 01:21:38;;;;;;;49.70;6.53;;;6.90;99.90;;;;;;5073293;28;20229;-51
2024/01/25 01:24:04;;;;;;;42.87;7.00;;;6.90;99.90;;;;;;5073283;28;20517;-49
2024/01/25 01:26:30;;;;;;;54.23;8.53;;;6.80;99.90;;;;;;5073304;28;20417;-49
2024/01/25 01:28:55;;;;;;;45.20;7.13;;;6.80;99.90;;;;;;5073162;28;20182;-50
2024/01/25 01:31:21;;;;;;;49.73;7.10;;;6.80;99.90;;;;;;5073109;28;20182;-50
2024/01/25 01:33:47;;;;;;;45.97;7.20;;;6.80;99.90;;;;;;5072984;28;20231;-50
2024/01/25 01:36:13;;;;;;;51.60;7.27;;;6.80;99.90;;;;;;5072772;28;20260;-50
2024/01/25 01:38:38;;;;;;;61.30;8.50;;;6.70;99.90;;;;;;5072984;28;20196;-50
2024/01/25 01:41:04;;;;;;;44.23;7.07;;;6.70;99.90;;;;;;5073201;28;20498;-50
2024/01/25 01:43:29;;;;;;;49.00;7.50;;;6.70;99.90;;;;;;5073040;28;20540;-49
2024/01/25 01:46:09;;;;;;;51.50;7.60;;;6.70;99.90;;;;;;5075752;28;20213;-50
2024/01/25 01:48:35;;;;;;;48.27;8.03;;;6.80;99.90;;;;;;5076664;28;20174;-50
2024/01/25 01:51:01;;;;;;;37.90;6.83;;;6.80;99.90;;;;;;5076113;28;21001;-52
2024/01/25 01:53:26;;;;;;;43.93;7.40;;;6.80;99.90;;;;;;5076082;28;20239;-50
2024/01/25 01:55:52;;;;;;;45.10;7.40;;;6.80;99.90;;;;;;5075319;28;20179;-50
2024/01/25 01:58:20;;;;;;;47.80;6.23;;;6.80;99.90;;;;;;5075224;28;20194;-50
2024/01/25 02:00:47;;;;;;;38.23;6.43;;;6.80;99.90;;;;;;5073889;28;20580;-50
2024/01/25 02:03:12;;;;;;;49.63;6.90;;;6.80;99.90;;;;;;5076476;28;20482;-50
2024/01/25 02:05:38;;;;;;;58.00;7.67;;;6.80;99.90;;;;;;5075778;28;20800;-50
2024/01/25 02:08:05;;;;;;;55.27;8.50;;;6.80;99.90;;;;;;5075404;28;20629;-50
2024/01/25 02:10:30;;;;;;;41.27;6.47;;;6.80;99.90;;;;;;5076065;28;20267;-50
2024/01/25 02:12:56;;;;;;;47.87;7.83;;;6.80;99.90;;;;;;5075669;28;20421;-49
2024/01/25 02:15:21;;;;;;;51.80;7.47;;;6.90;99.90;;;;;;5075788;28;20182;-50
2024/01/25 02:17:47;;;;;;;48.30;7.33;;;6.90;99.90;;;;;;5075575;28;20182;-49
2024/01/25 02:20:12;;;;;;;60.93;7.50;;;6.90;99.90;;;;;;5075518;28;20192;-49
2024/01/25 02:22:38;;;;;;;47.30;6.80;;;6.90;99.90;;;;;;5075883;28;20248;-49
2024/01/25 02:25:04;;;;;;;55.33;6.87;;;6.90;99.90;;;;;;5075472;28;20707;-49
2024/01/25 02:27:29;;;;;;;53.27;6.73;;;6.90;99.90;;;;;;5075100;28;20182;-49
2024/01/25 02:29:55;;;;;;;56.37;7.23;;;6.90;99.90;;;;;;5075698;28;20464;-49
2024/01/25 02:32:21;;;;;;;56.10;8.00;;;6.90;99.90;;;;;;5075402;28;20654;-49
2024/01/25 02:34:47;;;;;;;51.97;6.93;;;6.90;99.90;;;;;;5075632;28;20537;-49
2024/01/25 02:37:14;;;;;;;50.13;6.57;;;6.90;99.90;;;;;;5075447;28;20408;-50
2024/01/25 02:39:39;;;;;;;47.60;7.43;;;6.90;99.90;;;;;;5075599;28;20201;-50
2024/01/25 02:42:05;;;;;;;49.73;6.50;;;6.90;1.00;;;;;;5075266;28;20408;-49
2024/01/25 02:44:31;;;;;;;39.50;5.57;;;6.90;1.00;;;;;;5075716;28;20218;-49
2024/01/25 02:46:56;;;;;;;53.10;7.40;;;6.90;1.00;;;;;;5075271;28;20239;-49
2024/01/25 02:49:23;;;;;;;47.57;7.00;;;7.00;99.90;;;;;;5075092;28;20252;-50
2024/01/25 02:51:49;;;;;;;41.70;6.53;;;7.00;99.90;;;;;;5074495;28;20324;-49
2024/01/25 02:54:14;;;;;;;59.33;7.53;;;7.00;99.90;;;;;;5074352;28;20504;-49
2024/01/25 02:56:40;;;;;;;35.23;5.50;;;7.10;99.90;;;;;;5074064;28;20174;-49
2024/01/25 02:59:06;;;;;;;48.60;6.93;;;7.00;99.90;;;;;;5074921;28;20228;-49
2024/01/25 03:01:39;;;;;;;45.67;7.40;;;7.00;99.90;;;;;;5074922;28;20178;-49
2024/01/25 03:04:05;;;;;;;42.03;6.50;;;7.00;99.90;;;;;;5074753;28;20188;-49
2024/01/25 03:06:31;;;;;;;30.50;5.90;;;7.00;99.90;;;;;;5074705;28;20416;-49
2024/01/25 03:08:56;;;;;;;45.20;6.67;;;7.00;99.90;;;;;;5075095;28;20198;-49
2024/01/25 03:11:22;;;;;;;52.80;7.20;;;7.00;99.90;;;;;;5074832;28;20182;-49
2024/01/25 03:13:47;;;;;;;42.67;6.67;;;7.00;99.90;;;;;;5075052;28;20178;-49
2024/01/25 03:16:13;;;;;;;69.80;7.87;;;7.00;99.90;;;;;;5074926;28;20201;-49
2024/01/25 03:18:38;;;;;;;46.53;6.50;;;7.00;99.90;;;;;;5074515;28;20205;-49
2024/01/25 03:21:04;;;;;;;34.50;5.87;;;7.00;99.90;;;;;;5074656;28;20193;-49
2024/01/25 03:23:30;;;;;;;36.93;5.93;;;6.90;99.90;;;;;;5074661;28;20261;-49
2024/01/25 03:25:55;;;;;;;41.43;7.20;;;6.90;1.00;;;;;;5074397;28;20600;-49
2024/01/25 03:28:21;;;;;;;46.67;7.80;;;7.00;1.00;;;;;;5074598;28;20174;-49
2024/01/25 03:30:46;;;;;;;40.27;8.10;;;7.00;1.00;;;;;;5074203;28;20221;-50
2024/01/25 03:33:12;;;;;;;56.53;7.73;;;6.90;1.00;;;;;;5074548;28;20178;-50
2024/01/25 03:35:37;;;;;;;50.17;6.80;;;7.00;1.00;;;;;;5073935;28;20182;-50
2024/01/25 03:38:03;;;;;;;48.90;7.10;;;7.00;1.00;;;;;;5074162;28;20189;-50
2024/01/25 03:40:28;;;;;;;44.87;6.93;;;7.00;1.00;;;;;;5074587;28;20190;-50
2024/01/25 03:42:54;;;;;;;50.93;6.70;;;7.00;99.90;;;;;;5074035;28;20182;-50
2024/01/25 03:45:20;;;;;;;55.17;7.53;;;7.00;99.90;;;;;;5073815;28;20174;-50
2024/01/25 03:47:45;;;;;;;35.63;5.77;;;7.00;99.90;;;;;;5073954;28;20243;-50
2024/01/25 03:50:11;;;;;;;28.77;5.73;;;7.00;99.90;;;;;;5073960;28;20218;-50
2024/01/25 03:52:36;;;;;;;46.63;7.63;;;7.10;99.90;;;;;;5074140;28;20539;-50
2024/01/25 03:55:03;;;;;;;49.13;6.67;;;7.10;99.90;;;;;;5074371;28;20229;-50
2024/01/25 03:57:28;;;;;;;28.83;5.87;;;7.10;99.90;;;;;;5074159;28;20182;-50
2024/01/25 03:59:54;;;;;;;61.83;7.20;;;7.10;99.90;;;;;;5074160;28;20512;-50
2024/01/25 04:02:19;;;;;;;38.57;6.50;;;7.10;99.90;;;;;;5073774;28;20210;-50
2024/01/25 04:04:45;;;;;;;63.60;6.57;;;7.10;99.90;;;;;;5074042;28;20178;-50
2024/01/25 04:07:10;;;;;;;45.70;6.23;;;7.10;99.90;;;;;;5073156;28;20280;-50
2024/01/25 04:09:37;;;;;;;39.03;6.37;;;7.10;99.90;;;;;;5074087;28;20198;-50
2024/01/25 04:12:02;;;;;;;54.07;7.10;;;7.10;1.00;;;;;;5073787;28;20182;-50
2024/01/25 04:14:28;;;;;;;41.40;6.23;;;7.10;1.00;;;;;;5073478;28;20424;-50
2024/01/25 04:16:53;;;;;;;32.13;5.97;;;7.10;1.00;;;;;;5073785;28;20182;-50
2024/01/25 04:19:19;;;;;;;47.40;6.37;;;7.10;1.00;;;;;;5074047;28;20280;-50
2024/01/25 04:21:44;;;;;;;44.67;6.37;;;7.10;1.00;;;;;;5073689;28;20184;-50
2024/01/25 04:24:10;;;;;;;34.60;6.53;;;7.10;1.00;;;;;;5073860;28;20269;-50
2024/01/25 04:26:36;;;;;;;40.93;6.70;;;7.10;1.00;;;;;;5073840;28;20267;-50
2024/01/25 04:29:01;;;;;;;51.97;6.33;;;7.10;1.00;;;;;;5073722;28;20540;-50
2024/01/25 04:31:27;;;;;;;45.50;6.47;;;7.10;1.00;;;;;;5073826;28;20214;-50
2024/01/25 04:33:52;;;;;;;47.73;6.97;;;7.10;1.00;;;;;;5073324;28;20178;-50
2024/01/25 04:36:18;;;;;;;46.07;6.80;;;7.00;1.00;;;;;;5073826;28;20181;-50
2024/01/25 04:38:43;;;;;;;49.80;6.53;;;7.10;1.00;;;;;;5073643;28;20178;-50
2024/01/25 04:41:09;;;;;;;36.57;5.50;;;7.10;1.00;;;;;;5073571;28;20185;-50
2024/01/25 04:43:36;;;;;;;29.73;6.40;;;7.00;1.00;;;;;;5073232;28;20178;-51
2024/01/25 04:46:02;;;;;;;46.83;7.50;;;7.00;1.00;;;;;;5072007;28;20214;-50
2024/01/25 04:48:28;;;;;;;51.83;6.70;;;7.00;1.00;;;;;;5073654;28;20507;-50
2024/01/25 04:50:54;;;;;;;45.27;5.43;;;7.00;1.00;;;;;;5073407;28;20534;-50
2024/01/25 04:53:19;;;;;;;45.10;7.43;;;7.00;1.00;;;;;;5073372;28;20198;-50
2024/01/25 04:55:45;;;;;;;34.30;6.37;;;7.00;1.00;;;;;;5073654;28;20205;-50
2024/01/25 04:58:11;;;;;;;54.27;6.60;;;7.00;1.00;;;;;;5073726;28;20196;-50
2024/01/25 05:00:38;;;;;;;37.80;5.77;;;7.00;1.00;;;;;;5073507;28;20186;-50
2024/01/25 05:03:04;;;;;;;37.33;5.60;;;6.90;1.00;;;;;;5073509;28;20420;-50
2024/01/25 05:05:29;;;;;;;40.07;6.23;;;6.90;1.00;;;;;;5073309;28;20420;-50
2024/01/25 05:07:55;;;;;;;42.23;5.83;;;6.90;1.00;;;;;;5072878;28;20230;-50
2024/01/25 05:10:20;;;;;;;49.93;8.47;;;6.80;1.00;;;;;;5073256;28;20296;-50
2024/01/25 05:12:46;;;;;;;53.90;7.07;;;6.80;1.00;;;;;;5073311;28;20232;-50
2024/01/25 05:15:12;;;;;;;48.97;6.50;;;6.80;1.00;;;;;;5073449;28;20618;-50
2024/01/25 05:17:37;;;;;;;40.53;5.93;;;6.80;1.00;;;;;;5073542;28;20186;-50
2024/01/25 05:20:03;;;;;;;49.23;6.33;;;6.80;1.00;;;;;;5075894;28;20185;-50
2024/01/25 05:22:29;;;;;;;34.33;6.57;;;6.70;1.00;;;;;;5077032;28;20182;-50
2024/01/25 05:24:54;;;;;;;47.50;5.40;;;6.70;1.00;;;;;;5076796;28;20243;-50
2024/01/25 05:27:20;;;;;;;38.23;6.00;;;6.70;1.00;;;;;;5076637;28;20190;-50
2024/01/25 05:29:45;;;;;;;46.13;6.43;;;6.80;1.00;;;;;;5076387;28;20304;-50
2024/01/25 05:32:11;;;;;;;41.53;5.53;;;6.70;1.00;;;;;;5076540;28;20206;-50
2024/01/25 05:34:36;;;;;;;38.33;5.50;;;6.80;19.50;;;;;;5076724;28;20189;-50
2024/01/25 05:37:02;;;;;;;33.13;6.07;;;6.80;5.70;;;;;;5076643;28;20179;-50
2024/01/25 05:39:28;;;;;;;38.53;5.50;;;6.80;1.00;;;;;;5076902;28;20178;-50
2024/01/25 05:41:53;;;;;;;37.80;6.17;;;6.70;84.10;;;;;;5076692;28;20178;-50
2024/01/25 05:44:19;;;;;;;46.97;6.97;;;6.70;52.60;;;;;;5076455;28;20186;-50
2024/01/25 05:46:44;;;;;;;49.23;6.67;;;6.70;75.30;;;;;;5076349;28;20231;-50
2024/01/25 05:49:10;;;;;;;39.80;6.20;;;6.70;62.20;;;;;;5076159;28;20247;-50
2024/01/25 05:51:35;;;;;;;42.17;6.70;;;6.70;99.90;;;;;;5076487;28;20190;-50
2024/01/25 05:54:01;;;;;;;53.97;6.20;;;6.60;99.90;;;;;;5076494;28;20574;-49
2024/01/25 05:56:27;;;;;;;49.20;6.43;;;6.60;99.90;;;;;;5076177;28;20180;-50
2024/01/25 05:58:52;;;;;;;51.90;6.47;;;6.60;99.90;;;;;;5076433;28;20189;-50
2024/01/25 06:01:18;;;;;;;35.57;6.87;;;6.60;99.90;;;;;;5076460;28;20186;-50
2024/01/25 06:03:44;;;;;;;57.73;8.40;;;6.60;1.00;;;;;;5076312;28;20190;-50
2024/01/25 06:06:10;;;;;;;48.43;6.50;;;6.60;99.90;;;;;;5076260;28;20412;-50
2024/01/25 06:08:35;;;;;;;51.10;7.00;;;6.60;1.00;;;;;;5076468;28;20321;-50
2024/01/25 06:11:01;;;;;;;36.67;6.23;;;6.60;1.00;;;;;;5076113;28;20252;-50
2024/01/25 06:13:26;;;;;;;31.77;5.83;;;6.70;1.00;;;;;;5076184;28;20687;-50
2024/01/25 06:15:52;;;;;;;29.00;5.40;;;6.70;1.00;;;;;;5076083;28;20178;-50
2024/01/25 06:18:17;;;;;;;45.33;7.50;;;6.70;1.00;;;;;;5075984;28;20178;-50
2024/01/25 06:20:44;;;;;;;40.40;6.07;;;6.70;1.00;;;;;;5076012;28;20239;-50
2024/01/25 06:23:09;;;;;;;48.43;5.83;;;6.70;1.00;;;;;;5075670;28;20532;-50
2024/01/25 06:25:35;;;;;;;40.60;6.13;;;6.70;1.00;;;;;;5075723;28;20417;-50
2024/01/25 06:28:03;;;;;;;31.37;6.00;;;6.70;1.00;;;;;;5075897;28;20578;-50
2024/01/25 06:30:29;;;;;;;43.03;6.90;;;6.70;1.00;;;;;;5074828;28;20476;-50
2024/01/25 06:32:54;;;;;;;38.57;5.37;;;6.70;1.00;;;;;;5075659;28;20409;-50
2024/01/25 06:35:20;;;;;;;44.73;6.30;;;6.60;1.00;;;;;;5075503;28;20178;-50
2024/01/25 06:37:45;;;;;;;49.33;6.13;;;6.70;1.00;;;;;;5075283;28;20198;-50
2024/01/25 06:40:11;;;;;;;42.93;5.57;;;6.70;1.00;;;;;;5074833;28;20186;-50
2024/01/25 06:42:37;;;;;;;36.70;7.50;;;6.60;1.00;;;;;;5074567;28;20185;-50
2024/01/25 06:45:03;;;;;;;49.50;5.97;;;6.60;1.00;;;;;;5074746;28;20173;-51
2024/01/25 06:47:29;;;;;;;46.53;5.90;;;6.70;1.00;;;;;;5075058;28;20623;-51
2024/01/25 06:49:54;;;;;;;41.03;6.23;;;6.70;1.00;;;;;;5074997;28;20471;-51
2024/01/25 06:52:20;;;;;;;40.57;6.40;;;6.60;1.00;;;;;;5075418;28;20618;-50
2024/01/25 06:54:46;;;;;;;51.47;7.17;;;6.60;1.00;;;;;;5075133;28;20214;-50
2024/01/25 06:57:11;;;;;;;33.50;5.70;;;6.60;1.00;;;;;;5074721;28;20943;-51
2024/01/25 06:59:37;;;;;;;40.87;7.60;;;6.50;1.00;;;;;;5075267;28;20182;-50
2024/01/25 07:02:03;;;;;;;50.70;6.27;;;6.50;26.10;;;;;;5074832;28;20206;-50
2024/01/25 07:04:29;;;;;;;52.57;6.47;;;6.50;99.90;;;;;;5074566;28;20189;-50
2024/01/25 07:06:55;;;;;;;56.43;7.13;;;6.50;99.90;;;;;;5074797;28;20229;-50
2024/01/25 07:09:20;;;;;;;45.83;7.60;;;6.50;99.90;;;;;;5074520;28;20460;-50
2024/01/25 07:11:46;;;;;;;51.80;6.77;;;6.50;99.90;;;;;;5074776;28;20766;-50
2024/01/25 07:14:12;;;;;;;44.57;6.10;;;6.60;99.90;;;;;;5074436;28;20507;-50
2024/01/25 07:16:37;;;;;;;40.93;6.30;;;6.60;98.70;;;;;;5074526;28;20178;-50
2024/01/25 07:19:03;;;;;;;58.57;6.60;;;6.60;99.90;;;;;;5074159;28;20185;-50
2024/01/25 07:21:32;;;;;;;50.70;7.97;;;6.50;99.90;;;;;;5074829;28;20193;-50
2024/01/25 07:24:02;;;;;;;47.70;6.73;;;6.60;99.90;;;;;;5074245;28;20240;-50
2024/01/25 07:26:27;;;;;;;41.30;6.30;;;6.60;99.90;;;;;;5074712;28;20419;-50
2024/01/25 07:28:57;;;;;;;60.87;7.20;;;6.60;99.90;;;;;;5073978;28;20416;-50
2024/01/25 07:31:26;;;;;;;50.20;6.63;;;6.60;99.90;;;;;;5074571;28;20563;-50
2024/01/25 07:33:53;;;;;;;42.30;6.33;;;6.60;99.90;;;;;;5074266;28;20881;-50
2024/01/25 07:36:18;;;;;;;35.07;5.83;;;6.60;17.40;;;;;;5074340;28;20470;-50
2024/01/25 07:38:46;;;;;;;47.40;6.50;;;6.60;30.20;;;;;;5074419;28;20417;-50
2024/01/25 07:41:15;;;;;;;38.30;5.67;;;6.70;23.00;;;;;;5074074;28;20669;-49
2024/01/25 07:43:41;;;;;;;37.60;5.77;;;6.60;1.00;;;;;;5073969;28;20515;-49
2024/01/25 07:46:07;;;;;;;47.07;7.53;;;6.60;1.00;;;;;;5073842;28;21010;-49
2024/01/25 07:48:32;;;;;;;40.00;5.60;;;6.60;19.40;;;;;;5073627;28;20175;-49
2024/01/25 07:50:58;;;;;;;56.00;7.07;;;6.50;99.90;;;;;;5073587;28;20533;-50
2024/01/25 07:53:24;;;;;;;42.27;7.50;;;6.60;99.90;;;;;;5074177;28;20190;-50
2024/01/25 07:55:49;;;;;;;36.20;6.93;;;6.60;99.90;;;;;;5073723;28;20245;-50
2024/01/25 07:58:15;;;;;;;36.20;5.60;;;6.60;5.00;;;;;;5073808;28;20181;-49
2024/01/25 08:00:42;;;;;;;44.70;6.87;;;6.60;63.20;;;;;;5073632;28;20181;-51
2024/01/25 08:03:08;;;;;;;45.43;5.87;;;6.60;99.90;;;;;;5074007;28;20412;-50
2024/01/25 08:05:33;;;;;;;53.70;5.70;;;6.70;1.00;;;;;;5073883;28;20412;-49
2024/01/25 08:07:59;;;;;;;44.23;7.10;;;6.70;1.00;;;;;;5073387;28;20230;-49
2024/01/25 08:10:25;;;;;;;38.67;6.00;;;6.70;1.00;;;;;;5073732;28;20260;-49
2024/01/25 08:12:51;;;;;;;45.10;6.27;;;6.70;1.00;;;;;;5073685;28;20456;-50
2024/01/25 08:15:17;;;;;;;55.03;6.93;;;6.70;1.00;;;;;;5073872;28;20186;-49
2024/01/25 08:17:43;;;;;;;30.43;6.17;;;6.70;1.00;;;;;;5073855;28;20408;-50
2024/01/25 08:20:12;;;;;;;38.60;6.30;;;6.80;1.00;;;;;;5074132;28;20256;-50
2024/01/25 08:22:38;;;;;;;33.17;5.43;;;6.80;1.00;;;;;;5073322;28;20269;-50
2024/01/25 08:25:04;;;;;;;46.40;5.93;;;6.80;99.90;;;;;;5073507;28;20441;-49
2024/01/25 08:27:30;;;;;;;44.43;6.47;;;6.80;99.90;;;;;;5073451;28;20247;-49
2024/01/25 08:29:56;;;;;;;39.20;6.47;;;6.80;1.00;;;;;;5073405;28;20476;-51
2024/01/25 08:32:21;;;;;;;38.70;7.53;;;6.80;1.00;;;;;;5073597;28;20214;-51
2024/01/25 08:34:47;;;;;;;53.33;5.47;;;6.80;99.90;;;;;;5073961;28;20617;-50
2024/01/25 08:37:12;;;;;;;39.27;6.77;;;6.80;1.00;;;;;;5073660;28;20210;-50
2024/01/25 08:39:38;;;;;;;42.13;5.80;;;6.90;99.90;;;;;;5073541;28;20193;-50
2024/01/25 08:42:06;;;;;;;46.23;6.37;;;6.90;99.90;;;;;;5073420;28;20174;-50
2024/01/25 08:44:32;;;;;;;55.23;7.27;;;6.90;99.90;;;;;;5073391;28;20219;-50
2024/01/25 08:46:57;;;;;;;39.53;5.70;;;6.90;99.90;;;;;;5073469;28;20494;-50
2024/01/25 08:49:23;;;;;;;51.13;6.47;;;7.00;99.90;;;;;;5073467;28;20707;-50
2024/01/25 08:51:48;;;;;;;47.97;6.47;;;7.00;99.90;;;;;;5073165;28;20182;-50
2024/01/25 08:54:14;;;;;;;40.67;7.23;;;7.00;99.90;;;;;;5075146;28;20205;-50
2024/01/25 08:56:39;;;;;;;47.53;7.93;;;7.00;99.90;;;;;;5077669;28;20232;-50
2024/01/25 08:59:05;;;;;;;26.90;5.67;;;7.00;99.90;;;;;;5077406;28;20185;-50
2024/01/25 09:01:30;;;;;;;32.47;6.60;;;7.00;99.90;;;;;;5077194;28;20186;-50
2024/01/25 09:04:02;;;;;;;38.90;9.13;;;7.00;99.90;;;;;;5077342;28;20178;-50
2024/01/25 09:06:27;;;;;;;31.03;5.70;;;7.00;99.90;;;;;;5076951;28;20174;-50
2024/01/25 09:08:53;;;;;;;42.93;6.17;;;7.00;99.90;;;;;;5077347;28;20393;-50
2024/01/25 09:11:19;;;;;;;38.77;6.97;;;7.00;1.00;;;;;;5076982;28;20210;-50
2024/01/25 09:13:47;;;;;;;40.57;6.27;;;7.00;1.00;;;;;;5076930;28;20535;-50
2024/01/25 09:16:13;;;;;;;44.80;6.40;;;7.00;1.00;;;;;;5076813;28;20898;-50
2024/01/25 09:18:39;;;;;;;39.33;6.47;;;7.00;1.00;;;;;;5076137;28;20413;-49
2024/01/25 09:21:04;;;;;;;45.97;6.17;;;7.10;1.00;;;;;;5075584;28;20900;-50
2024/01/25 09:23:30;;;;;;;43.70;6.00;;;7.10;1.00;;;;;;5075711;28;20786;-49
2024/01/25 09:25:55;;;;;;;40.30;6.30;;;7.10;1.00;;;;;;5076951;28;20190;-50
2024/01/25 09:28:21;;;;;;;37.30;6.77;;;7.10;99.90;;;;;;5076861;28;20216;-52
2024/01/25 09:30:46;;;;;;;38.80;5.37;;;7.10;99.90;;;;;;5076652;28;20202;-50
2024/01/25 09:33:12;;;;;;;40.97;6.10;;;7.10;99.90;;;;;;5076743;28;20273;-50
2024/01/25 09:35:37;;;;;;;33.00;5.57;;;7.10;99.90;;;;;;5077047;28;20255;-50
2024/01/25 09:38:03;;;;;;;38.53;6.20;;;7.10;99.90;;;;;;5076764;28;20261;-50
2024/01/25 09:40:29;;;;;;;40.53;5.90;;;7.10;99.90;;;;;;5076917;28;20232;-50
2024/01/25 09:42:54;;;;;;;45.80;6.07;;;7.20;99.90;;;;;;5076692;28;20189;-50
2024/01/25 09:45:20;;;;;;;41.67;5.80;;;7.10;99.90;;;;;;5076610;28;20178;-50
2024/01/25 09:47:46;;;;;;;49.37;6.70;;;7.20;99.90;;;;;;5076667;28;20178;-50
2024/01/25 09:50:12;;;;;;;40.40;6.53;;;7.20;99.90;;;;;;5076464;28;20237;-50
2024/01/25 09:52:44;;;;;;;43.27;8.17;;;7.30;99.90;;;;;;5076199;28;20661;-50
2024/01/25 09:55:17;;;;;;;46.83;6.60;;;7.30;7.10;;;;;;5076657;28;20463;-50
2024/01/25 09:57:46;;;;;;;42.10;5.27;;;7.30;23.30;;;;;;5076480;28;20507;-50
2024/01/25 10:00:13;;;;;;;48.00;6.43;;;7.30;1.00;;;;;;5076364;28;20419;-50
2024/01/25 10:02:39;;;;;;;50.70;5.70;;;7.30;42.20;;;;;;5076061;28;20428;-50
2024/01/25 10:05:05;;;;;;;37.33;7.13;;;7.30;52.60;;;;;;5074837;28;20429;-50
2024/01/25 10:07:44;;;;;;;53.67;5.90;;;7.30;1.00;;;;;;5075702;28;20471;-50
2024/01/25 10:10:11;;;;;;;33.90;6.40;;;7.30;11.40;;;;;;5076022;28;20194;-50
2024/01/25 10:12:41;;;;;;;45.87;6.87;;;7.30;1.00;;;;;;5075769;28;20424;-50
2024/01/25 10:15:07;;;;;;;41.60;6.23;;;7.30;1.00;;;;;;5076282;28;20523;-50
2024/01/25 10:17:33;;;;;;;33.60;5.40;;;7.30;8.90;;;;;;5075899;28;20413;-50
2024/01/25 10:19:59;;;;;;;39.37;6.17;;;7.30;12.70;;;;;;5075711;28;20417;-50
2024/01/25 10:22:24;;;;;;;40.57;5.40;;;7.30;85.70;;;;;;5075908;28;20182;-50
2024/01/25 10:24:50;;;;;;;41.37;5.80;;;7.30;99.90;;;;;;5076031;28;20186;-50
2024/01/25 10:27:16;;;;;;;46.30;6.67;;;7.30;99.90;;;;;;5075942;28;20619;-50
2024/01/25 10:29:42;;;;;;;48.13;8.13;;;7.30;42.10;;;;;;5074961;28;20666;-50
2024/01/25 10:32:09;;;;;;;39.27;5.63;;;7.30;53.00;;;;;;5075286;28;20442;-50
2024/01/25 10:34:36;;;;;;;48.77;6.67;;;7.30;86.00;;;;;;5074958;28;20182;-50
2024/01/25 10:37:04;;;;;;;31.37;5.47;;;7.30;46.60;;;;;;5075734;28;20546;-50
2024/01/25 10:39:31;;;;;;;35.80;5.30;;;7.30;1.00;;;;;;5075695;28;20499;-49
2024/01/25 10:42:01;;;;;;;44.23;6.07;;;7.30;8.10;;;;;;5075699;28;20423;-50
2024/01/25 10:44:27;;;;;;;46.13;6.30;;;7.30;1.00;;;;;;5074651;28;20409;-50
2024/01/25 10:46:54;;;;;;;40.23;5.97;;;7.30;6.50;;;;;;5075444;28;20773;-50
2024/01/25 10:49:20;;;;;;;41.17;6.03;;;7.40;45.10;;;;;;5074768;28;20185;-50
2024/01/25 10:51:46;;;;;;;39.10;5.93;;;7.40;49.50;;;;;;5074243;28;20821;-50
2024/01/25 10:54:14;;;;;;;42.70;6.70;;;7.50;55.00;;;;;;5074898;28;20421;-50
2024/01/25 10:56:42;;;;;;;53.47;7.90;;;7.50;1.00;;;;;;5074356;28;20746;-50
2024/01/25 10:59:08;;;;;;;41.33;5.73;;;7.50;1.00;;;;;;5075144;28;20409;-50
2024/01/25 11:01:35;;;;;;;31.93;4.97;;;7.50;1.00;;;;;;5074715;28;20452;-50
2024/01/25 11:04:00;;;;;;;43.87;5.50;;;7.50;1.00;;;;;;5074750;28;20761;-50
2024/01/25 11:06:27;;;;;;;49.03;6.70;;;7.50;1.00;;;;;;5074571;28;20449;-50
2024/01/25 11:09:07;;;;;;;38.80;6.03;;;7.60;1.00;;;;;;5074892;28;20178;-50
2024/01/25 11:11:35;;;;;;;47.57;5.77;;;7.50;1.00;;;;;;5074430;28;20460;-50
2024/01/25 11:14:01;;;;;;;43.43;6.37;;;7.50;1.00;;;;;;5074220;28;20526;-50
2024/01/25 11:16:31;;;;;;;41.30;5.90;;;7.50;1.00;;;;;;5074134;28;20496;-50
2024/01/25 11:19:04;;;;;;;36.80;6.13;;;7.60;1.00;;;;;;5074583;28;20226;-50
2024/01/25 11:21:41;;;;;;;32.73;5.73;;;7.60;1.00;;;;;;5074157;28;20769;-50
2024/01/25 11:24:15;;;;;;;34.40;5.30;;;7.60;1.00;;;;;;5073908;28;21057;-50
2024/01/25 11:26:44;;;;;;;40.77;5.27;;;7.60;1.00;;;;;;5074065;28;20397;-50
2024/01/25 11:29:10;;;;;;;53.07;6.37;;;7.60;1.00;;;;;;5074147;28;20912;-50
2024/01/25 11:31:35;;;;;;;39.27;5.57;;;7.60;1.00;;;;;;5074294;28;20503;-50
2024/01/25 11:34:01;;;;;;;33.37;5.90;;;7.60;1.00;;;;;;5074226;28;20174;-50
2024/01/25 11:36:27;;;;;;;35.33;5.33;;;7.60;1.00;;;;;;5074135;28;20178;-51
2024/01/25 11:38:53;;;;;;;44.77;6.20;;;7.60;1.00;;;;;;5073688;28;20194;-51
2024/01/25 11:41:19;;;;;;;39.00;6.10;;;7.60;1.00;;;;;;5073534;28;20420;-50
2024/01/25 11:43:45;;;;;;;43.03;6.00;;;7.60;1.00;;;;;;5073721;28;20428;-50
2024/01/25 11:46:12;;;;;;;31.70;5.30;;;7.60;1.00;;;;;;5073722;28;20427;-51
2024/01/25 11:48:41;;;;;;;39.00;5.83;;;7.70;1.00;;;;;;5073991;28;20205;-51
2024/01/25 11:51:09;;;;;;;24.27;4.80;;;7.70;1.00;;;;;;5073687;28;20470;-51
2024/01/25 11:53:35;;;;;;;36.87;6.33;;;7.70;99.90;;;;;;5073478;28;20907;-50
2024/01/25 11:56:01;;;;;;;43.67;5.97;;;7.70;99.90;;;;;;5073769;28;20412;-50
2024/01/25 11:58:26;;;;;;;44.17;6.37;;;7.70;99.90;;;;;;5072902;28;20190;-50
2024/01/25 12:00:52;;;;;;;35.20;6.73;;;7.80;99.90;;;;;;5073002;28;20421;-50
2024/01/25 12:03:18;;;;;;;33.00;5.90;;;7.80;99.90;;;;;;5074033;28;20186;-51
2024/01/25 12:05:44;;;;;;;32.83;4.93;;;7.70;99.90;;;;;;5073545;28;20175;-50
2024/01/25 12:08:13;;;;;;;35.03;6.23;;;7.70;99.90;;;;;;5073330;28;20480;-49
2024/01/25 12:10:38;;;;;;;32.07;4.90;;;7.70;99.90;;;;;;5073517;28;20198;-49
2024/01/25 12:13:07;;;;;;;24.40;5.30;;;7.70;99.90;;;;;;5073234;28;20953;-50
2024/01/25 12:15:33;;;;;;;47.00;6.30;;;7.80;99.90;;;;;;5073559;28;20178;-51
2024/01/25 12:17:59;;;;;;;37.13;5.57;;;7.80;99.90;;;;;;5073412;28;20420;-50
2024/01/25 12:20:24;;;;;;;30.00;4.80;;;7.80;99.90;;;;;;5073442;28;20182;-50
2024/01/25 12:22:50;;;;;;;33.63;6.73;;;7.80;99.90;;;;;;5073621;28;20188;-50
2024/01/25 12:25:16;;;;;;;39.87;5.20;;;7.80;99.90;;;;;;5073304;28;20192;-50
2024/01/25 12:27:41;;;;;;;34.03;5.67;;;7.70;99.90;;;;;;5073307;28;20193;-51
2024/01/25 12:30:08;;;;;;;32.63;4.47;;;7.90;99.90;;;;;;5072628;28;20255;-50
2024/01/25 12:32:34;;;;;;;32.57;5.37;;;7.70;99.90;;;;;;5073262;28;20190;-51
2024/01/25 12:35:00;;;;;;;42.20;6.97;;;7.60;99.90;;;;;;5073408;28;20428;-51
2024/01/25 12:37:26;;;;;;;31.60;5.37;;;7.60;99.90;;;;;;5073002;28;20634;-50
2024/01/25 12:39:53;;;;;;;42.90;5.50;;;7.60;99.90;;;;;;5073161;28;20932;-50
2024/01/25 12:42:20;;;;;;;36.53;4.73;;;7.60;99.90;;;;;;5073141;28;20438;-51
2024/01/25 12:44:45;;;;;;;36.70;5.60;;;7.60;99.90;;;;;;5073057;28;20405;-51